Sea Cloud II — 9HUE6 — position and weather

sailwx.info

Track history (hours):
 
Tides and Currents Weather Stations Pressure Air Temp Water Temp Dewpoint Dewpoint Depression Visibility Wind Speed Wind Dir Waves Ship Positions

Sea Cloud II

Ship's website: http://www.seacloud.com/en/the-ships/sea-cloud-ii.html

Last reported at 2018-Feb-19 10:47 UTC. Time now 2018-Feb-19 16:03 UTC.
Position N 17°16' W 062°43'.

Length 117 m; draft 6 m.

Type: Passenger vessel. MMSI: 248953000.

Date/timePositionNaut miles runAvg speedWind from/ knotsBaromVisibWave heightAir tempDewpointWater temp
2018-Feb-19 10:47N 17°16' W 062°43'2 0.1
2018-Feb-18 16:44N 17°17' W 062°45'2 8.2
2018-Feb-18 16:28N 17°17' W 062°47'23 4.2
2018-Feb-18 10:59N 17°39' W 062°50'3 4.8
2018-Feb-18 10:22N 17°41' W 062°53'2 6.0
2018-Feb-18 09:58N 17°41' W 062°56'5 5.9
2018-Feb-18 09:11N 17°43' W 063°00'2 9.5
2018-Feb-18 09:00N 17°43' W 063°02'5 9.4
2018-Feb-18 08:30N 17°45' W 063°07'5 9.6
2018-Feb-18 08:00N 17°46' W 063°12'5 9.6
2018-Feb-18 07:30N 17°48' W 063°16'5 9.4
2018-Feb-18 07:00N 17°50' W 063°21'6 9.7
2018-Feb-18 06:21N 17°52' W 063°27'9 9.8
2018-Feb-18 05:24N 17°56' W 063°36'410.0
2018-Feb-18 04:59N 17°57' W 063°40'5 9.7
2018-Feb-18 04:29N 17°59' W 063°45'17 0.6
2018-Feb-17 00:20N 17°57' W 063°27'3 6.8
2018-Feb-16 23:57N 17°55' W 063°25'5 6.9
2018-Feb-16 23:10N 17°52' W 063°20'1 7.1
2018-Feb-16 23:00N 17°51' W 063°19'4 7.1
2018-Feb-16 22:29N 17°49' W 063°16'3 6.3
2018-Feb-16 21:57N 17°48' W 063°13'3 5.6
2018-Feb-16 21:29N 17°47' W 063°10'3 5.8
2018-Feb-16 20:58N 17°47' W 063°07'3 5.8
2018-Feb-16 20:29N 17°46' W 063°04'3 5.9
2018-Feb-16 19:58N 17°48' W 063°02'3 5.6
2018-Feb-16 19:28N 17°50' W 062°60'2 5.1
2018-Feb-16 19:00N 17°51' W 062°58'3 5.1
2018-Feb-16 18:28N 17°53' W 062°55'2 0.3
2018-Feb-16 10:56N 17°54' W 062°53'5 3.3
2018-Feb-16 09:28N 17°50' W 062°51'41 3.8
2018-Feb-15 22:51N 17°18' W 062°24'3 6.1
2018-Feb-15 22:20N 17°16' W 062°22'1 3.4
2018-Feb-15 22:00N 17°15' W 062°21'3 6.0
2018-Feb-15 21:30N 17°16' W 062°18'3 6.2
2018-Feb-15 21:00N 17°15' W 062°14'3 6.1
2018-Feb-15 20:30N 17°15' W 062°11'3 6.1
2018-Feb-15 20:00N 17°14' W 062°08'3 6.2
2018-Feb-15 19:30N 17°14' W 062°05'3 5.8
2018-Feb-15 19:00N 17°13' W 062°02'3 5.8
2018-Feb-15 18:30N 17°12' W 061°59'3 5.5
2018-Feb-15 18:00N 17°10' W 061°57'5 9.1
2018-Feb-15 17:30N 17°08' W 061°53'2 3.5
2018-Feb-15 16:58N 17°07' W 061°51'0 0.0
2018-Feb-15 16:28N 17°07' W 061°51'0 0.0
2018-Feb-15 15:58N 17°07' W 061°51'0 0.0
2018-Feb-15 15:28N 17°07' W 061°51'0 0.0
2018-Feb-15 14:58N 17°07' W 061°51'0 0.0
2018-Feb-15 14:28N 17°07' W 061°51'0 0.0
2018-Feb-15 13:58N 17°07' W 061°51'0 0.0
2018-Feb-15 13:28N 17°07' W 061°51'0 0.0
2018-Feb-15 12:58N 17°07' W 061°51'0 0.0
2018-Feb-15 12:28N 17°07' W 061°51'0 0.0
2018-Feb-15 11:58N 17°07' W 061°51'0 0.0
2018-Feb-15 11:28N 17°07' W 061°51'0 0.0
2018-Feb-15 10:58N 17°07' W 061°51'0 0.0
2018-Feb-15 10:28N 17°07' W 061°51'0 0.0
2018-Feb-15 09:58N 17°07' W 061°51'0 0.0
2018-Feb-15 09:28N 17°07' W 061°51'0 0.0
2018-Feb-15 08:55N 17°07' W 061°51'0 0.0
2018-Feb-15 08:28N 17°07' W 061°51'0 0.0
2018-Feb-15 07:58N 17°07' W 061°51'0 0.0
2018-Feb-15 07:28N 17°07' W 061°51'0 0.0
2018-Feb-15 06:55N 17°07' W 061°51'0 0.0
2018-Feb-15 06:25N 17°07' W 061°51'0 0.0
2018-Feb-15 05:58N 17°07' W 061°51'0 0.0
2018-Feb-15 05:25N 17°07' W 061°51'0 0.0
2018-Feb-15 04:55N 17°07' W 061°51'0 0.0
2018-Feb-15 04:28N 17°07' W 061°51'0 0.0
2018-Feb-15 03:58N 17°07' W 061°51'0 0.0
2018-Feb-15 03:28N 17°07' W 061°51'0 0.0
2018-Feb-15 02:58N 17°07' W 061°51'0 0.0
2018-Feb-15 02:28N 17°07' W 061°51'0 0.0
2018-Feb-15 01:58N 17°07' W 061°51'0 0.0
2018-Feb-15 01:28N 17°07' W 061°51'0 0.0
2018-Feb-15 00:58N 17°07' W 061°51'0 0.0
2018-Feb-15 00:28N 17°07' W 061°51'0 0.0
2018-Feb-14 23:58N 17°07' W 061°51'0 0.0
2018-Feb-14 23:28N 17°07' W 061°51'0 0.0
2018-Feb-14 22:58N 17°07' W 061°51'1 1.5
2018-Feb-14 22:31N 17°08' W 061°51'0 0.0
2018-Feb-14 21:58N 17°08' W 061°51'0 0.0
2018-Feb-14 21:28N 17°08' W 061°51'0 0.0
2018-Feb-14 20:58N 17°08' W 061°51'0 0.0
2018-Feb-14 20:28N 17°08' W 061°51'0 0.0
2018-Feb-14 19:58N 17°08' W 061°51'0 0.0
2018-Feb-14 19:28N 17°08' W 061°51'0 0.0
2018-Feb-14 18:58N 17°08' W 061°51'0 0.0
2018-Feb-14 18:28N 17°08' W 061°51'0 0.0
2018-Feb-14 17:58N 17°08' W 061°51'0 0.0
2018-Feb-14 17:28N 17°08' W 061°51'0 0.0
2018-Feb-14 16:58N 17°08' W 061°51'0 0.0
2018-Feb-14 16:28N 17°08' W 061°51'0 0.0
2018-Feb-14 15:58N 17°08' W 061°51'0 0.0
2018-Feb-14 15:25N 17°08' W 061°51'0 0.0
2018-Feb-14 14:55N 17°08' W 061°51'0 0.0
2018-Feb-14 14:28N 17°08' W 061°51'0 0.0
2018-Feb-14 13:58N 17°08' W 061°51'0 0.0
2018-Feb-14 13:28N 17°08' W 061°51'0 0.0
2018-Feb-14 12:58N 17°08' W 061°51'0 0.0
2018-Feb-14 12:28N 17°08' W 061°51'0 0.0
2018-Feb-14 11:58N 17°08' W 061°51'0 0.0
2018-Feb-14 11:28N 17°08' W 061°51'0 0.4
2018-Feb-14 11:00N 17°07' W 061°52'4 7.1
2018-Feb-14 10:30N 17°09' W 061°55'2 4.5
2018-Feb-14 10:00N 17°09' W 061°57'2 4.7
2018-Feb-14 09:30N 17°08' W 061°60'3 5.2
2018-Feb-14 09:00N 17°05' W 062°00'3 6.5
2018-Feb-14 08:30N 17°02' W 061°60'4 8.4
2018-Feb-14 08:00N 16°58' W 061°58'510.4
2018-Feb-14 07:30N 16°53' W 061°56'611.0
2018-Feb-14 07:00N 16°48' W 061°55'611.0
2018-Feb-14 06:30N 16°43' W 061°53'510.3
2018-Feb-14 06:00N 16°38' W 061°51'5 9.5
2018-Feb-14 05:30N 16°33' W 061°51'5 9.5
2018-Feb-14 05:00N 16°29' W 061°50'5 9.7
2018-Feb-14 04:30N 16°24' W 061°50'510.2
2018-Feb-14 04:00N 16°19' W 061°50'5 9.4
2018-Feb-14 03:30N 16°14' W 061°50'3 6.6
2018-Feb-14 03:00N 16°11' W 061°51'3 5.5
2018-Feb-14 02:26N 16°07' W 061°51'1 0.9
2018-Feb-14 01:33N 16°07' W 061°50'0 0.8
2018-Feb-14 01:03N 16°07' W 061°50'0 1.0
2018-Feb-14 01:00N 16°07' W 061°50'1 1.2
2018-Feb-14 00:30N 16°07' W 061°49'1 1.3
2018-Feb-14 00:00N 16°07' W 061°49'1 1.2
2018-Feb-13 23:26N 16°06' W 061°48'1 1.1
2018-Feb-13 22:56N 16°06' W 061°48'9 2.7
2018-Feb-13 19:45N 16°14' W 061°51'1 4.2
2018-Feb-13 19:30N 16°15' W 061°50'2 4.3
2018-Feb-13 18:59N 16°17' W 061°50'2 2.7
2018-Feb-13 18:21N 16°18' W 061°48'0 0.1
2018-Feb-13 18:00N 16°18' W 061°48'0 0.0
2018-Feb-13 17:27N 16°18' W 061°48'0 0.0
2018-Feb-13 16:54N 16°18' W 061°48'0 0.0
2018-Feb-13 15:57N 16°18' W 061°48'0 0.0
2018-Feb-13 15:30N 16°18' W 061°48'0 0.0
2018-Feb-13 14:42N 16°18' W 061°48'0 0.1
2018-Feb-13 14:30N 16°18' W 061°48'0 0.0
2018-Feb-13 13:57N 16°18' W 061°48'0 0.0
2018-Feb-13 13:30N 16°18' W 061°48'0 0.0
2018-Feb-13 12:57N 16°18' W 061°48'0 0.1
2018-Feb-13 12:30N 16°18' W 061°48'0 0.0
2018-Feb-13 11:57N 16°18' W 061°48'0 0.1
2018-Feb-13 11:30N 16°18' W 061°48'2 3.1
2018-Feb-13 11:00N 16°18' W 061°50'2 3.3
2018-Feb-13 10:31N 16°17' W 061°51'1 2.0
2018-Feb-13 10:01N 16°16' W 061°51'1 2.7
2018-Feb-13 09:30N 16°15' W 061°51'1 2.6
2018-Feb-13 09:01N 16°13' W 061°51'4 5.0
2018-Feb-13 08:16N 16°10' W 061°50'3 4.3
2018-Feb-13 07:29N 16°07' W 061°50'2 0.8
2018-Feb-13 05:20N 16°05' W 061°49'5 1.9
2018-Feb-13 02:56N 16°01' W 061°51'3 1.1
2018-Feb-13 00:35N 16°00' W 061°49'0 0.8
2018-Feb-13 00:31N 16°00' W 061°48'1 1.0
2018-Feb-12 23:53N 16°00' W 061°48'0 1.1
2018-Feb-12 23:31N 16°01' W 061°47'1 1.4
2018-Feb-12 23:01N 16°00' W 061°47'3 0.2
2018-Feb-12 08:25N 15°57' W 061°46'2 2.7
2018-Feb-12 07:46N 15°58' W 061°47'0 1.3
2018-Feb-12 07:29N 15°59' W 061°47'1 1.4
2018-Feb-12 06:59N 15°58' W 061°47'13 1.6
2018-Feb-11 22:59N 16°11' W 061°49'3 5.6
2018-Feb-11 22:30N 16°11' W 061°52'18 9.0
2018-Feb-11 20:27N 16°18' W 062°10'4 8.8
2018-Feb-11 20:00N 16°20' W 062°13'4 8.9
2018-Feb-11 19:30N 16°23' W 062°17'4 8.9
2018-Feb-11 19:00N 16°26' W 062°20'4 8.9
2018-Feb-11 18:31N 16°30' W 062°23'5 9.2
2018-Feb-11 17:58N 16°34' W 062°26'4 9.8
2018-Feb-11 17:30N 16°38' W 062°28'510.0
2018-Feb-11 17:00N 16°43' W 062°30'36 9.9
2018-Feb-11 13:21N 17°16' W 062°43'1 0.7
2018-Feb-11 11:52N 17°17' W 062°44'10 0.4
2018-Feb-10 11:11N 17°08' W 062°39'1 5.7
2018-Feb-10 11:00N 17°08' W 062°40'3 4.8
2018-Feb-10 10:28N 17°09' W 062°43'2 4.8
2018-Feb-10 10:00N 17°10' W 062°45'1 2.4
2018-Feb-10 09:24N 17°12' W 062°45'2 0.5
2018-Feb-10 06:28N 17°13' W 062°46'1 1.4
2018-Feb-10 05:59N 17°12' W 062°46'1 1.4
2018-Feb-10 05:27N 17°12' W 062°45'1 1.5
2018-Feb-10 05:00N 17°11' W 062°45'1 1.5
2018-Feb-10 04:16N 17°11' W 062°44'0 1.5
2018-Feb-10 04:00N 17°10' W 062°44'1 1.3
2018-Feb-10 03:28N 17°10' W 062°43'1 1.3
2018-Feb-10 02:58N 17°09' W 062°43'1 1.2
2018-Feb-10 02:28N 17°09' W 062°42'1 1.1
2018-Feb-10 01:54N 17°09' W 062°42'1 1.4
2018-Feb-10 01:27N 17°08' W 062°41'1 1.5
2018-Feb-10 01:00N 17°08' W 062°41'1 1.2
2018-Feb-10 00:30N 17°07' W 062°41'1 1.2
2018-Feb-09 23:58N 17°07' W 062°40'1 1.2
2018-Feb-09 23:30N 17°06' W 062°40'30 6.0
2018-Feb-09 18:30N 16°50' W 062°14'3 0.4
2018-Feb-09 11:00N 16°47' W 062°15'  
Track history (hours):
 
Tides and Currents Weather Stations Pressure Air Temp Water Temp Dewpoint Dewpoint Depression Visibility Wind Speed Wind Dir Waves Ship Positions

Sea Cloud II

Ship's website: http://www.seacloud.com/en/the-ships/sea-cloud-ii.html

Last reported at 2018-Feb-19 10:47 UTC. Time now 2018-Feb-19 16:03 UTC.
Position N 17°16' W 062°43'.

Length 117 m; draft 6 m.

Type: Passenger vessel. MMSI: 248953000.

Date/timePositionNaut miles runAvg speedWind from/ knotsBaromVisibWave heightAir tempDewpointWater temp
2018-Feb-19 10:47N 17°16' W 062°43'2 0.1
2018-Feb-18 16:44N 17°17' W 062°45'2 8.2
2018-Feb-18 16:28N 17°17' W 062°47'23 4.2
2018-Feb-18 10:59N 17°39' W 062°50'3 4.8
2018-Feb-18 10:22N 17°41' W 062°53'2 6.0
2018-Feb-18 09:58N 17°41' W 062°56'5 5.9
2018-Feb-18 09:11N 17°43' W 063°00'2 9.5
2018-Feb-18 09:00N 17°43' W 063°02'5 9.4
2018-Feb-18 08:30N 17°45' W 063°07'5 9.6
2018-Feb-18 08:00N 17°46' W 063°12'5 9.6
2018-Feb-18 07:30N 17°48' W 063°16'5 9.4
2018-Feb-18 07:00N 17°50' W 063°21'6 9.7
2018-Feb-18 06:21N 17°52' W 063°27'9 9.8
2018-Feb-18 05:24N 17°56' W 063°36'410.0
2018-Feb-18 04:59N 17°57' W 063°40'5 9.7
2018-Feb-18 04:29N 17°59' W 063°45'17 0.6
2018-Feb-17 00:20N 17°57' W 063°27'3 6.8
2018-Feb-16 23:57N 17°55' W 063°25'5 6.9
2018-Feb-16 23:10N 17°52' W 063°20'1 7.1
2018-Feb-16 23:00N 17°51' W 063°19'4 7.1
2018-Feb-16 22:29N 17°49' W 063°16'3 6.3
2018-Feb-16 21:57N 17°48' W 063°13'3 5.6
2018-Feb-16 21:29N 17°47' W 063°10'3 5.8
2018-Feb-16 20:58N 17°47' W 063°07'3 5.8
2018-Feb-16 20:29N 17°46' W 063°04'3 5.9
2018-Feb-16 19:58N 17°48' W 063°02'3 5.6
2018-Feb-16 19:28N 17°50' W 062°60'2 5.1
2018-Feb-16 19:00N 17°51' W 062°58'3 5.1
2018-Feb-16 18:28N 17°53' W 062°55'2 0.3
2018-Feb-16 10:56N 17°54' W 062°53'5 3.3
2018-Feb-16 09:28N 17°50' W 062°51'41 3.8
2018-Feb-15 22:51N 17°18' W 062°24'3 6.1
2018-Feb-15 22:20N 17°16' W 062°22'1 3.4
2018-Feb-15 22:00N 17°15' W 062°21'3 6.0
2018-Feb-15 21:30N 17°16' W 062°18'3 6.2
2018-Feb-15 21:00N 17°15' W 062°14'3 6.1
2018-Feb-15 20:30N 17°15' W 062°11'3 6.1
2018-Feb-15 20:00N 17°14' W 062°08'3 6.2
2018-Feb-15 19:30N 17°14' W 062°05'3 5.8
2018-Feb-15 19:00N 17°13' W 062°02'3 5.8
2018-Feb-15 18:30N 17°12' W 061°59'3 5.5
2018-Feb-15 18:00N 17°10' W 061°57'5 9.1
2018-Feb-15 17:30N 17°08' W 061°53'2 3.5
2018-Feb-15 16:58N 17°07' W 061°51'0 0.0
2018-Feb-15 16:28N 17°07' W 061°51'0 0.0
2018-Feb-15 15:58N 17°07' W 061°51'0 0.0
2018-Feb-15 15:28N 17°07' W 061°51'0 0.0
2018-Feb-15 14:58N 17°07' W 061°51'0 0.0
2018-Feb-15 14:28N 17°07' W 061°51'0 0.0
2018-Feb-15 13:58N 17°07' W 061°51'0 0.0
2018-Feb-15 13:28N 17°07' W 061°51'0 0.0
2018-Feb-15 12:58N 17°07' W 061°51'0 0.0
2018-Feb-15 12:28N 17°07' W 061°51'0 0.0
2018-Feb-15 11:58N 17°07' W 061°51'0 0.0
2018-Feb-15 11:28N 17°07' W 061°51'0 0.0
2018-Feb-15 10:58N 17°07' W 061°51'0 0.0
2018-Feb-15 10:28N 17°07' W 061°51'0 0.0
2018-Feb-15 09:58N 17°07' W 061°51'0 0.0
2018-Feb-15 09:28N 17°07' W 061°51'0 0.0
2018-Feb-15 08:55N 17°07' W 061°51'0 0.0
2018-Feb-15 08:28N 17°07' W 061°51'0 0.0
2018-Feb-15 07:58N 17°07' W 061°51'0 0.0
2018-Feb-15 07:28N 17°07' W 061°51'0 0.0
2018-Feb-15 06:55N 17°07' W 061°51'0 0.0
2018-Feb-15 06:25N 17°07' W 061°51'0 0.0
2018-Feb-15 05:58N 17°07' W 061°51'0 0.0
2018-Feb-15 05:25N 17°07' W 061°51'0 0.0
2018-Feb-15 04:55N 17°07' W 061°51'0 0.0
2018-Feb-15 04:28N 17°07' W 061°51'0 0.0
2018-Feb-15 03:58N 17°07' W 061°51'0 0.0
2018-Feb-15 03:28N 17°07' W 061°51'0 0.0
2018-Feb-15 02:58N 17°07' W 061°51'0 0.0
2018-Feb-15 02:28N 17°07' W 061°51'0 0.0
2018-Feb-15 01:58N 17°07' W 061°51'0 0.0
2018-Feb-15 01:28N 17°07' W 061°51'0 0.0
2018-Feb-15 00:58N 17°07' W 061°51'0 0.0
2018-Feb-15 00:28N 17°07' W 061°51'0 0.0
2018-Feb-14 23:58N 17°07' W 061°51'0 0.0
2018-Feb-14 23:28N 17°07' W 061°51'0 0.0
2018-Feb-14 22:58N 17°07' W 061°51'1 1.5
2018-Feb-14 22:31N 17°08' W 061°51'0 0.0
2018-Feb-14 21:58N 17°08' W 061°51'0 0.0
2018-Feb-14 21:28N 17°08' W 061°51'0 0.0
2018-Feb-14 20:58N 17°08' W 061°51'0 0.0
2018-Feb-14 20:28N 17°08' W 061°51'0 0.0
2018-Feb-14 19:58N 17°08' W 061°51'0 0.0
2018-Feb-14 19:28N 17°08' W 061°51'0 0.0
2018-Feb-14 18:58N 17°08' W 061°51'0 0.0
2018-Feb-14 18:28N 17°08' W 061°51'0 0.0
2018-Feb-14 17:58N 17°08' W 061°51'0 0.0
2018-Feb-14 17:28N 17°08' W 061°51'0 0.0
2018-Feb-14 16:58N 17°08' W 061°51'0 0.0
2018-Feb-14 16:28N 17°08' W 061°51'0 0.0
2018-Feb-14 15:58N 17°08' W 061°51'0 0.0
2018-Feb-14 15:25N 17°08' W 061°51'0 0.0
2018-Feb-14 14:55N 17°08' W 061°51'0 0.0
2018-Feb-14 14:28N 17°08' W 061°51'0 0.0
2018-Feb-14 13:58N 17°08' W 061°51'0 0.0
2018-Feb-14 13:28N 17°08' W 061°51'0 0.0
2018-Feb-14 12:58N 17°08' W 061°51'0 0.0
2018-Feb-14 12:28N 17°08' W 061°51'0 0.0
2018-Feb-14 11:58N 17°08' W 061°51'0 0.0
2018-Feb-14 11:28N 17°08' W 061°51'0 0.4
2018-Feb-14 11:00N 17°07' W 061°52'4 7.1
2018-Feb-14 10:30N 17°09' W 061°55'2 4.5
2018-Feb-14 10:00N 17°09' W 061°57'2 4.7
2018-Feb-14 09:30N 17°08' W 061°60'3 5.2
2018-Feb-14 09:00N 17°05' W 062°00'3 6.5
2018-Feb-14 08:30N 17°02' W 061°60'4 8.4
2018-Feb-14 08:00N 16°58' W 061°58'510.4
2018-Feb-14 07:30N 16°53' W 061°56'611.0
2018-Feb-14 07:00N 16°48' W 061°55'611.0
2018-Feb-14 06:30N 16°43' W 061°53'510.3
2018-Feb-14 06:00N 16°38' W 061°51'5 9.5
2018-Feb-14 05:30N 16°33' W 061°51'5 9.5
2018-Feb-14 05:00N 16°29' W 061°50'5 9.7
2018-Feb-14 04:30N 16°24' W 061°50'510.2
2018-Feb-14 04:00N 16°19' W 061°50'5 9.4
2018-Feb-14 03:30N 16°14' W 061°50'3 6.6
2018-Feb-14 03:00N 16°11' W 061°51'3 5.5
2018-Feb-14 02:26N 16°07' W 061°51'1 0.9
2018-Feb-14 01:33N 16°07' W 061°50'0 0.8
2018-Feb-14 01:03N 16°07' W 061°50'0 1.0
2018-Feb-14 01:00N 16°07' W 061°50'1 1.2
2018-Feb-14 00:30N 16°07' W 061°49'1 1.3
2018-Feb-14 00:00N 16°07' W 061°49'1 1.2
2018-Feb-13 23:26N 16°06' W 061°48'1 1.1
2018-Feb-13 22:56N 16°06' W 061°48'9 2.7
2018-Feb-13 19:45N 16°14' W 061°51'1 4.2
2018-Feb-13 19:30N 16°15' W 061°50'2 4.3
2018-Feb-13 18:59N 16°17' W 061°50'2 2.7
2018-Feb-13 18:21N 16°18' W 061°48'0 0.1
2018-Feb-13 18:00N 16°18' W 061°48'0 0.0
2018-Feb-13 17:27N 16°18' W 061°48'0 0.0
2018-Feb-13 16:54N 16°18' W 061°48'0 0.0
2018-Feb-13 15:57N 16°18' W 061°48'0 0.0
2018-Feb-13 15:30N 16°18' W 061°48'0 0.0
2018-Feb-13 14:42N 16°18' W 061°48'0 0.1
2018-Feb-13 14:30N 16°18' W 061°48'0 0.0
2018-Feb-13 13:57N 16°18' W 061°48'0 0.0
2018-Feb-13 13:30N 16°18' W 061°48'0 0.0
2018-Feb-13 12:57N 16°18' W 061°48'0 0.1
2018-Feb-13 12:30N 16°18' W 061°48'0 0.0
2018-Feb-13 11:57N 16°18' W 061°48'0 0.1
2018-Feb-13 11:30N 16°18' W 061°48'2 3.1
2018-Feb-13 11:00N 16°18' W 061°50'2 3.3
2018-Feb-13 10:31N 16°17' W 061°51'1 2.0
2018-Feb-13 10:01N 16°16' W 061°51'1 2.7
2018-Feb-13 09:30N 16°15' W 061°51'1 2.6
2018-Feb-13 09:01N 16°13' W 061°51'4 5.0
2018-Feb-13 08:16N 16°10' W 061°50'3 4.3
2018-Feb-13 07:29N 16°07' W 061°50'2 0.8
2018-Feb-13 05:20N 16°05' W 061°49'5 1.9
2018-Feb-13 02:56N 16°01' W 061°51'3 1.1
2018-Feb-13 00:35N 16°00' W 061°49'0 0.8
2018-Feb-13 00:31N 16°00' W 061°48'1 1.0
2018-Feb-12 23:53N 16°00' W 061°48'0 1.1
2018-Feb-12 23:31N 16°01' W 061°47'1 1.4
2018-Feb-12 23:01N 16°00' W 061°47'3 0.2
2018-Feb-12 08:25N 15°57' W 061°46'2 2.7
2018-Feb-12 07:46N 15°58' W 061°47'0 1.3
2018-Feb-12 07:29N 15°59' W 061°47'1 1.4
2018-Feb-12 06:59N 15°58' W 061°47'13 1.6
2018-Feb-11 22:59N 16°11' W 061°49'3 5.6
2018-Feb-11 22:30N 16°11' W 061°52'18 9.0
2018-Feb-11 20:27N 16°18' W 062°10'4 8.8
2018-Feb-11 20:00N 16°20' W 062°13'4 8.9
2018-Feb-11 19:30N 16°23' W 062°17'4 8.9
2018-Feb-11 19:00N 16°26' W 062°20'4 8.9
2018-Feb-11 18:31N 16°30' W 062°23'5 9.2
2018-Feb-11 17:58N 16°34' W 062°26'4 9.8
2018-Feb-11 17:30N 16°38' W 062°28'510.0
2018-Feb-11 17:00N 16°43' W 062°30'36 9.9
2018-Feb-11 13:21N 17°16' W 062°43'1 0.7
2018-Feb-11 11:52N 17°17' W 062°44'10 0.4
2018-Feb-10 11:11N 17°08' W 062°39'1 5.7
2018-Feb-10 11:00N 17°08' W 062°40'3 4.8
2018-Feb-10 10:28N 17°09' W 062°43'2 4.8
2018-Feb-10 10:00N 17°10' W 062°45'1 2.4
2018-Feb-10 09:24N 17°12' W 062°45'2 0.5
2018-Feb-10 06:28N 17°13' W 062°46'1 1.4
2018-Feb-10 05:59N 17°12' W 062°46'1 1.4
2018-Feb-10 05:27N 17°12' W 062°45'1 1.5
2018-Feb-10 05:00N 17°11' W 062°45'1 1.5
2018-Feb-10 04:16N 17°11' W 062°44'0 1.5
2018-Feb-10 04:00N 17°10' W 062°44'1 1.3
2018-Feb-10 03:28N 17°10' W 062°43'1 1.3
2018-Feb-10 02:58N 17°09' W 062°43'1 1.2
2018-Feb-10 02:28N 17°09' W 062°42'1 1.1
2018-Feb-10 01:54N 17°09' W 062°42'1 1.4
2018-Feb-10 01:27N 17°08' W 062°41'1 1.5
2018-Feb-10 01:00N 17°08' W 062°41'1 1.2
2018-Feb-10 00:30N 17°07' W 062°41'1 1.2
2018-Feb-09 23:58N 17°07' W 062°40'1 1.2
2018-Feb-09 23:30N 17°06' W 062°40'30 6.0
2018-Feb-09 18:30N 16°50' W 062°14'3 0.4
2018-Feb-09 11:00N 16°47' W 062°15'  

Dump ship's entire track history